sensor_id;sensor_type;location;lat;lon;timestamp;P1;durP1;ratioP1;P2;durP2;ratioP2
13805;SDS011;6974;53.606;9.872;2022-11-14T00:01:40;34.90;;;27.00;;
13805;SDS011;6974;53.606;9.872;2022-11-14T00:04:07;33.50;;;25.40;;
13805;SDS011;6974;53.606;9.872;2022-11-14T00:06:35;33.07;;;27.07;;
13805;SDS011;6974;53.606;9.872;2022-11-14T00:09:02;34.00;;;26.80;;
13805;SDS011;6974;53.606;9.872;2022-11-14T00:11:29;33.20;;;25.93;;
13805;SDS011;6974;53.606;9.872;2022-11-14T00:13:56;33.17;;;27.07;;
13805;SDS011;6974;53.606;9.872;2022-11-14T00:16:23;31.93;;;26.73;;
13805;SDS011;6974;53.606;9.872;2022-11-14T00:18:50;30.20;;;25.20;;
13805;SDS011;6974;53.606;9.872;2022-11-14T00:21:17;33.60;;;26.27;;
13805;SDS011;6974;53.606;9.872;2022-11-14T00:23:45;33.57;;;26.60;;
13805;SDS011;6974;53.606;9.872;2022-11-14T00:26:12;31.73;;;26.67;;
13805;SDS011;6974;53.606;9.872;2022-11-14T00:28:39;33.40;;;26.03;;
13805;SDS011;6974;53.606;9.872;2022-11-14T00:31:06;32.47;;;27.13;;
13805;SDS011;6974;53.606;9.872;2022-11-14T00:33:34;34.83;;;26.40;;
13805;SDS011;6974;53.606;9.872;2022-11-14T00:36:01;32.30;;;26.40;;
13805;SDS011;6974;53.606;9.872;2022-11-14T00:38:27;35.50;;;27.53;;
13805;SDS011;6974;53.606;9.872;2022-11-14T00:40:56;33.87;;;26.47;;
13805;SDS011;6974;53.606;9.872;2022-11-14T00:43:23;33.30;;;25.73;;
13805;SDS011;6974;53.606;9.872;2022-11-14T00:45:49;35.37;;;27.40;;
13805;SDS011;6974;53.606;9.872;2022-11-14T00:48:16;36.00;;;27.20;;
13805;SDS011;6974;53.606;9.872;2022-11-14T00:50:43;33.93;;;26.20;;
13805;SDS011;6974;53.606;9.872;2022-11-14T00:53:10;32.60;;;26.00;;
13805;SDS011;6974;53.606;9.872;2022-11-14T00:55:37;35.40;;;26.80;;
13805;SDS011;6974;53.606;9.872;2022-11-14T00:58:05;33.80;;;26.60;;
13805;SDS011;6974;53.606;9.872;2022-11-14T01:00:32;33.47;;;26.37;;
13805;SDS011;6974;53.606;9.872;2022-11-14T01:02:59;31.23;;;25.03;;
13805;SDS011;6974;53.606;9.872;2022-11-14T01:05:26;37.33;;;27.27;;
13805;SDS011;6974;53.606;9.872;2022-11-14T01:07:54;36.37;;;27.30;;
13805;SDS011;6974;53.606;9.872;2022-11-14T01:10:21;34.37;;;26.97;;
13805;SDS011;6974;53.606;9.872;2022-11-14T01:12:48;36.87;;;27.70;;
13805;SDS011;6974;53.606;9.872;2022-11-14T01:15:16;35.67;;;26.97;;
13805;SDS011;6974;53.606;9.872;2022-11-14T01:17:43;34.80;;;27.00;;
13805;SDS011;6974;53.606;9.872;2022-11-14T01:20:10;32.97;;;26.13;;
13805;SDS011;6974;53.606;9.872;2022-11-14T01:22:37;31.93;;;24.83;;
13805;SDS011;6974;53.606;9.872;2022-11-14T01:25:04;34.47;;;26.60;;
13805;SDS011;6974;53.606;9.872;2022-11-14T01:27:31;33.73;;;26.70;;
13805;SDS011;6974;53.606;9.872;2022-11-14T01:29:58;36.67;;;28.70;;
13805;SDS011;6974;53.606;9.872;2022-11-14T01:32:26;37.07;;;26.83;;
13805;SDS011;6974;53.606;9.872;2022-11-14T01:34:53;36.63;;;27.47;;
13805;SDS011;6974;53.606;9.872;2022-11-14T01:37:20;36.30;;;27.27;;
13805;SDS011;6974;53.606;9.872;2022-11-14T01:39:47;40.03;;;28.83;;
13805;SDS011;6974;53.606;9.872;2022-11-14T01:42:14;38.80;;;27.93;;
13805;SDS011;6974;53.606;9.872;2022-11-14T01:44:43;37.53;;;26.97;;
13805;SDS011;6974;53.606;9.872;2022-11-14T01:47:12;37.77;;;27.93;;
13805;SDS011;6974;53.606;9.872;2022-11-14T01:49:46;39.67;;;28.03;;
13805;SDS011;6974;53.606;9.872;2022-11-14T01:52:15;39.17;;;29.13;;
13805;SDS011;6974;53.606;9.872;2022-11-14T01:54:45;40.03;;;29.53;;
13805;SDS011;6974;53.606;9.872;2022-11-14T01:57:15;36.63;;;27.67;;
13805;SDS011;6974;53.606;9.872;2022-11-14T01:59:46;39.53;;;28.63;;
13805;SDS011;6974;53.606;9.872;2022-11-14T02:02:18;37.37;;;27.83;;
13805;SDS011;6974;53.606;9.872;2022-11-14T02:04:49;42.03;;;29.17;;
13805;SDS011;6974;53.606;9.872;2022-11-14T02:07:20;40.60;;;28.63;;
13805;SDS011;6974;53.606;9.872;2022-11-14T02:09:49;40.43;;;29.27;;
13805;SDS011;6974;53.606;9.872;2022-11-14T02:12:18;41.00;;;28.90;;
13805;SDS011;6974;53.606;9.872;2022-11-14T02:14:46;40.20;;;29.50;;
13805;SDS011;6974;53.606;9.872;2022-11-14T02:17:17;41.70;;;29.33;;
13805;SDS011;6974;53.606;9.872;2022-11-14T02:19:45;39.27;;;28.77;;
13805;SDS011;6974;53.606;9.872;2022-11-14T02:22:16;42.33;;;29.30;;
13805;SDS011;6974;53.606;9.872;2022-11-14T02:24:43;42.20;;;30.07;;
13805;SDS011;6974;53.606;9.872;2022-11-14T02:27:11;40.20;;;29.53;;
13805;SDS011;6974;53.606;9.872;2022-11-14T02:29:39;40.33;;;29.03;;
13805;SDS011;6974;53.606;9.872;2022-11-14T02:32:06;40.33;;;29.60;;
13805;SDS011;6974;53.606;9.872;2022-11-14T02:34:33;36.93;;;28.57;;
13805;SDS011;6974;53.606;9.872;2022-11-14T02:37:00;39.63;;;29.40;;
13805;SDS011;6974;53.606;9.872;2022-11-14T02:39:28;43.80;;;32.37;;
13805;SDS011;6974;53.606;9.872;2022-11-14T02:41:57;39.10;;;29.77;;
13805;SDS011;6974;53.606;9.872;2022-11-14T02:44:24;40.43;;;29.67;;
13805;SDS011;6974;53.606;9.872;2022-11-14T02:46:51;40.97;;;30.57;;
13805;SDS011;6974;53.606;9.872;2022-11-14T02:49:18;42.17;;;30.53;;
13805;SDS011;6974;53.606;9.872;2022-11-14T02:51:46;39.47;;;29.23;;
13805;SDS011;6974;53.606;9.872;2022-11-14T02:54:13;39.87;;;30.03;;
13805;SDS011;6974;53.606;9.872;2022-11-14T02:56:41;40.27;;;30.53;;
13805;SDS011;6974;53.606;9.872;2022-11-14T02:59:08;41.23;;;31.07;;
13805;SDS011;6974;53.606;9.872;2022-11-14T03:01:35;41.40;;;29.20;;
13805;SDS011;6974;53.606;9.872;2022-11-14T03:04:03;41.10;;;30.00;;
13805;SDS011;6974;53.606;9.872;2022-11-14T03:06:30;40.40;;;29.33;;
13805;SDS011;6974;53.606;9.872;2022-11-14T03:08:57;41.83;;;30.70;;
13805;SDS011;6974;53.606;9.872;2022-11-14T03:11:27;39.10;;;29.37;;
13805;SDS011;6974;53.606;9.872;2022-11-14T03:13:56;41.50;;;29.27;;
13805;SDS011;6974;53.606;9.872;2022-11-14T03:16:24;42.13;;;30.00;;
13805;SDS011;6974;53.606;9.872;2022-11-14T03:18:52;42.17;;;31.63;;
13805;SDS011;6974;53.606;9.872;2022-11-14T03:21:20;40.47;;;29.50;;
13805;SDS011;6974;53.606;9.872;2022-11-14T03:23:48;41.10;;;30.93;;
13805;SDS011;6974;53.606;9.872;2022-11-14T03:26:15;44.63;;;31.13;;
13805;SDS011;6974;53.606;9.872;2022-11-14T03:28:43;42.53;;;30.67;;
13805;SDS011;6974;53.606;9.872;2022-11-14T03:31:12;40.47;;;30.90;;
13805;SDS011;6974;53.606;9.872;2022-11-14T03:33:40;40.93;;;30.03;;
13805;SDS011;6974;53.606;9.872;2022-11-14T03:36:07;43.90;;;30.30;;
13805;SDS011;6974;53.606;9.872;2022-11-14T03:38:35;41.43;;;30.33;;
13805;SDS011;6974;53.606;9.872;2022-11-14T03:41:02;39.77;;;29.50;;
13805;SDS011;6974;53.606;9.872;2022-11-14T03:43:30;40.57;;;30.10;;
13805;SDS011;6974;53.606;9.872;2022-11-14T03:45:59;42.57;;;30.63;;
13805;SDS011;6974;53.606;9.872;2022-11-14T03:48:29;41.40;;;30.77;;
13805;SDS011;6974;53.606;9.872;2022-11-14T03:50:56;42.03;;;30.17;;
13805;SDS011;6974;53.606;9.872;2022-11-14T03:53:23;40.70;;;30.70;;
13805;SDS011;6974;53.606;9.872;2022-11-14T03:55:52;41.80;;;30.97;;
13805;SDS011;6974;53.606;9.872;2022-11-14T03:58:19;45.60;;;31.83;;
13805;SDS011;6974;53.606;9.872;2022-11-14T04:00:46;45.13;;;33.70;;
13805;SDS011;6974;53.606;9.872;2022-11-14T04:03:14;45.30;;;31.67;;
13805;SDS011;6974;53.606;9.872;2022-11-14T04:05:43;44.27;;;31.90;;
13805;SDS011;6974;53.606;9.872;2022-11-14T04:08:10;47.00;;;33.23;;
13805;SDS011;6974;53.606;9.872;2022-11-14T04:10:38;41.67;;;30.70;;
13805;SDS011;6974;53.606;9.872;2022-11-14T04:13:06;42.23;;;30.97;;
13805;SDS011;6974;53.606;9.872;2022-11-14T04:15:33;48.83;;;32.37;;
13805;SDS011;6974;53.606;9.872;2022-11-14T04:18:01;45.60;;;33.73;;
13805;SDS011;6974;53.606;9.872;2022-11-14T04:20:28;45.33;;;33.70;;
13805;SDS011;6974;53.606;9.872;2022-11-14T04:22:56;42.73;;;31.40;;
13805;SDS011;6974;53.606;9.872;2022-11-14T04:25:23;47.00;;;34.03;;
13805;SDS011;6974;53.606;9.872;2022-11-14T04:27:51;42.00;;;31.70;;
13805;SDS011;6974;53.606;9.872;2022-11-14T04:30:19;44.57;;;32.13;;
13805;SDS011;6974;53.606;9.872;2022-11-14T04:32:46;45.70;;;32.00;;
13805;SDS011;6974;53.606;9.872;2022-11-14T04:35:13;42.30;;;32.13;;
13805;SDS011;6974;53.606;9.872;2022-11-14T04:37:40;46.43;;;32.37;;
13805;SDS011;6974;53.606;9.872;2022-11-14T04:40:11;42.07;;;30.83;;
13805;SDS011;6974;53.606;9.872;2022-11-14T04:42:38;45.43;;;32.17;;
13805;SDS011;6974;53.606;9.872;2022-11-14T04:45:06;44.80;;;31.07;;
13805;SDS011;6974;53.606;9.872;2022-11-14T04:47:34;42.47;;;32.13;;
13805;SDS011;6974;53.606;9.872;2022-11-14T04:50:02;39.97;;;29.87;;
13805;SDS011;6974;53.606;9.872;2022-11-14T04:52:30;41.13;;;30.47;;
13805;SDS011;6974;53.606;9.872;2022-11-14T04:54:57;44.23;;;32.07;;
13805;SDS011;6974;53.606;9.872;2022-11-14T04:57:26;40.53;;;31.00;;
13805;SDS011;6974;53.606;9.872;2022-11-14T04:59:54;47.47;;;32.13;;
13805;SDS011;6974;53.606;9.872;2022-11-14T05:02:23;43.43;;;32.10;;
13805;SDS011;6974;53.606;9.872;2022-11-14T05:04:50;41.37;;;31.17;;
13805;SDS011;6974;53.606;9.872;2022-11-14T05:07:17;40.30;;;31.03;;
13805;SDS011;6974;53.606;9.872;2022-11-14T05:09:45;44.50;;;31.53;;
13805;SDS011;6974;53.606;9.872;2022-11-14T05:12:12;42.37;;;31.33;;
13805;SDS011;6974;53.606;9.872;2022-11-14T05:14:41;41.47;;;29.47;;
13805;SDS011;6974;53.606;9.872;2022-11-14T05:17:09;42.87;;;30.10;;
13805;SDS011;6974;53.606;9.872;2022-11-14T05:19:37;39.43;;;30.40;;
13805;SDS011;6974;53.606;9.872;2022-11-14T05:22:05;40.90;;;30.60;;
13805;SDS011;6974;53.606;9.872;2022-11-14T05:24:33;42.77;;;30.47;;
13805;SDS011;6974;53.606;9.872;2022-11-14T05:27:00;39.87;;;29.60;;
13805;SDS011;6974;53.606;9.872;2022-11-14T05:29:28;43.87;;;30.97;;
13805;SDS011;6974;53.606;9.872;2022-11-14T05:31:56;40.80;;;30.57;;
13805;SDS011;6974;53.606;9.872;2022-11-14T05:34:24;40.17;;;30.07;;
13805;SDS011;6974;53.606;9.872;2022-11-14T05:36:52;42.77;;;31.37;;
13805;SDS011;6974;53.606;9.872;2022-11-14T05:39:19;42.07;;;31.67;;
13805;SDS011;6974;53.606;9.872;2022-11-14T05:41:47;42.90;;;31.37;;
13805;SDS011;6974;53.606;9.872;2022-11-14T05:44:14;42.27;;;31.03;;
13805;SDS011;6974;53.606;9.872;2022-11-14T05:46:42;45.70;;;31.70;;
13805;SDS011;6974;53.606;9.872;2022-11-14T05:49:11;42.57;;;31.33;;
13805;SDS011;6974;53.606;9.872;2022-11-14T05:51:38;42.93;;;32.43;;
13805;SDS011;6974;53.606;9.872;2022-11-14T05:54:05;42.60;;;30.67;;
13805;SDS011;6974;53.606;9.872;2022-11-14T05:56:34;44.13;;;32.03;;
13805;SDS011;6974;53.606;9.872;2022-11-14T05:59:01;46.37;;;33.47;;
13805;SDS011;6974;53.606;9.872;2022-11-14T06:01:29;45.53;;;31.90;;
13805;SDS011;6974;53.606;9.872;2022-11-14T06:03:56;39.60;;;30.03;;
13805;SDS011;6974;53.606;9.872;2022-11-14T06:06:25;42.73;;;31.60;;
13805;SDS011;6974;53.606;9.872;2022-11-14T06:08:52;45.40;;;31.47;;
13805;SDS011;6974;53.606;9.872;2022-11-14T06:11:20;44.33;;;31.20;;
13805;SDS011;6974;53.606;9.872;2022-11-14T06:13:47;47.03;;;33.23;;
13805;SDS011;6974;53.606;9.872;2022-11-14T06:16:15;44.90;;;32.63;;
13805;SDS011;6974;53.606;9.872;2022-11-14T06:18:44;42.23;;;31.27;;
13805;SDS011;6974;53.606;9.872;2022-11-14T06:21:13;43.07;;;31.17;;
13805;SDS011;6974;53.606;9.872;2022-11-14T06:23:43;43.77;;;32.07;;
13805;SDS011;6974;53.606;9.872;2022-11-14T06:26:12;44.97;;;31.90;;
13805;SDS011;6974;53.606;9.872;2022-11-14T06:28:45;43.93;;;30.63;;
13805;SDS011;6974;53.606;9.872;2022-11-14T06:31:13;40.97;;;30.47;;
13805;SDS011;6974;53.606;9.872;2022-11-14T06:33:41;44.93;;;32.43;;
13805;SDS011;6974;53.606;9.872;2022-11-14T06:36:09;44.77;;;31.97;;
13805;SDS011;6974;53.606;9.872;2022-11-14T06:38:37;45.33;;;33.40;;
13805;SDS011;6974;53.606;9.872;2022-11-14T06:41:08;43.47;;;31.17;;
13805;SDS011;6974;53.606;9.872;2022-11-14T06:43:37;43.27;;;31.20;;
13805;SDS011;6974;53.606;9.872;2022-11-14T06:46:05;43.63;;;30.70;;
13805;SDS011;6974;53.606;9.872;2022-11-14T06:48:35;43.23;;;32.17;;
13805;SDS011;6974;53.606;9.872;2022-11-14T06:51:03;44.23;;;32.17;;
13805;SDS011;6974;53.606;9.872;2022-11-14T06:53:32;43.30;;;32.20;;
13805;SDS011;6974;53.606;9.872;2022-11-14T06:56:02;44.17;;;32.17;;
13805;SDS011;6974;53.606;9.872;2022-11-14T06:58:35;46.00;;;33.40;;
13805;SDS011;6974;53.606;9.872;2022-11-14T07:01:04;43.97;;;33.17;;
13805;SDS011;6974;53.606;9.872;2022-11-14T07:03:33;43.63;;;32.00;;
13805;SDS011;6974;53.606;9.872;2022-11-14T07:06:00;48.07;;;34.17;;
13805;SDS011;6974;53.606;9.872;2022-11-14T07:08:28;48.33;;;33.87;;
13805;SDS011;6974;53.606;9.872;2022-11-14T07:10:59;46.63;;;33.53;;
13805;SDS011;6974;53.606;9.872;2022-11-14T07:13:28;46.20;;;33.17;;
13805;SDS011;6974;53.606;9.872;2022-11-14T07:15:58;46.37;;;33.77;;
13805;SDS011;6974;53.606;9.872;2022-11-14T07:18:25;48.17;;;34.80;;
13805;SDS011;6974;53.606;9.872;2022-11-14T07:20:57;50.40;;;34.17;;
13805;SDS011;6974;53.606;9.872;2022-11-14T07:23:25;47.10;;;32.63;;
13805;SDS011;6974;53.606;9.872;2022-11-14T07:25:53;48.67;;;33.70;;
13805;SDS011;6974;53.606;9.872;2022-11-14T07:28:21;49.33;;;32.87;;
13805;SDS011;6974;53.606;9.872;2022-11-14T07:30:48;50.33;;;34.73;;
13805;SDS011;6974;53.606;9.872;2022-11-14T07:33:16;48.93;;;32.23;;
13805;SDS011;6974;53.606;9.872;2022-11-14T07:35:43;49.10;;;33.83;;
13805;SDS011;6974;53.606;9.872;2022-11-14T07:38:10;49.27;;;33.97;;
13805;SDS011;6974;53.606;9.872;2022-11-14T07:40:38;47.13;;;34.10;;
13805;SDS011;6974;53.606;9.872;2022-11-14T07:43:06;53.10;;;36.80;;
13805;SDS011;6974;53.606;9.872;2022-11-14T07:45:33;50.70;;;34.47;;
13805;SDS011;6974;53.606;9.872;2022-11-14T07:48:01;50.03;;;34.13;;
13805;SDS011;6974;53.606;9.872;2022-11-14T07:50:30;51.43;;;34.50;;
13805;SDS011;6974;53.606;9.872;2022-11-14T07:52:58;47.80;;;34.50;;
13805;SDS011;6974;53.606;9.872;2022-11-14T07:55:25;51.90;;;35.53;;
13805;SDS011;6974;53.606;9.872;2022-11-14T07:57:52;48.00;;;34.67;;
13805;SDS011;6974;53.606;9.872;2022-11-14T08:00:20;51.37;;;35.60;;
13805;SDS011;6974;53.606;9.872;2022-11-14T08:02:47;48.33;;;33.43;;
13805;SDS011;6974;53.606;9.872;2022-11-14T08:05:14;51.00;;;35.93;;
13805;SDS011;6974;53.606;9.872;2022-11-14T08:07:44;48.53;;;34.73;;
13805;SDS011;6974;53.606;9.872;2022-11-14T08:10:11;48.07;;;33.40;;
13805;SDS011;6974;53.606;9.872;2022-11-14T08:12:39;46.10;;;33.73;;
13805;SDS011;6974;53.606;9.872;2022-11-14T08:15:07;45.03;;;32.33;;
13805;SDS011;6974;53.606;9.872;2022-11-14T08:17:35;50.07;;;34.57;;
13805;SDS011;6974;53.606;9.872;2022-11-14T08:20:03;51.60;;;34.73;;
13805;SDS011;6974;53.606;9.872;2022-11-14T08:22:31;47.93;;;33.63;;
13805;SDS011;6974;53.606;9.872;2022-11-14T08:25:00;48.07;;;34.07;;
13805;SDS011;6974;53.606;9.872;2022-11-14T08:27:28;47.73;;;33.93;;
13805;SDS011;6974;53.606;9.872;2022-11-14T08:29:56;48.40;;;32.63;;
13805;SDS011;6974;53.606;9.872;2022-11-14T08:32:23;46.97;;;32.73;;
13805;SDS011;6974;53.606;9.872;2022-11-14T08:34:50;46.90;;;32.50;;
13805;SDS011;6974;53.606;9.872;2022-11-14T08:37:17;45.63;;;31.80;;
13805;SDS011;6974;53.606;9.872;2022-11-14T08:39:44;48.53;;;32.23;;
13805;SDS011;6974;53.606;9.872;2022-11-14T08:42:12;50.03;;;33.10;;
13805;SDS011;6974;53.606;9.872;2022-11-14T08:44:39;45.87;;;31.63;;
13805;SDS011;6974;53.606;9.872;2022-11-14T08:47:06;44.17;;;31.30;;
13805;SDS011;6974;53.606;9.872;2022-11-14T08:49:33;49.00;;;33.27;;
13805;SDS011;6974;53.606;9.872;2022-11-14T08:52:00;46.23;;;31.97;;
13805;SDS011;6974;53.606;9.872;2022-11-14T08:54:27;49.60;;;33.83;;
13805;SDS011;6974;53.606;9.872;2022-11-14T08:56:54;45.37;;;32.03;;
13805;SDS011;6974;53.606;9.872;2022-11-14T08:59:23;47.90;;;31.47;;
13805;SDS011;6974;53.606;9.872;2022-11-14T09:01:49;43.97;;;31.60;;
13805;SDS011;6974;53.606;9.872;2022-11-14T09:04:16;47.60;;;31.37;;
13805;SDS011;6974;53.606;9.872;2022-11-14T09:06:43;47.97;;;33.43;;
13805;SDS011;6974;53.606;9.872;2022-11-14T09:09:10;49.57;;;33.90;;
13805;SDS011;6974;53.606;9.872;2022-11-14T09:11:37;49.40;;;33.97;;
13805;SDS011;6974;53.606;9.872;2022-11-14T09:14:04;50.27;;;34.33;;
13805;SDS011;6974;53.606;9.872;2022-11-14T09:16:32;49.40;;;34.10;;
13805;SDS011;6974;53.606;9.872;2022-11-14T09:19:00;46.93;;;32.47;;
13805;SDS011;6974;53.606;9.872;2022-11-14T09:21:27;49.17;;;32.10;;
13805;SDS011;6974;53.606;9.872;2022-11-14T09:23:54;46.93;;;32.60;;
13805;SDS011;6974;53.606;9.872;2022-11-14T09:26:21;49.30;;;33.03;;
13805;SDS011;6974;53.606;9.872;2022-11-14T09:28:47;48.17;;;33.27;;
13805;SDS011;6974;53.606;9.872;2022-11-14T09:31:14;48.90;;;32.83;;
13805;SDS011;6974;53.606;9.872;2022-11-14T09:33:42;47.90;;;32.17;;
13805;SDS011;6974;53.606;9.872;2022-11-14T09:36:10;52.07;;;33.60;;
13805;SDS011;6974;53.606;9.872;2022-11-14T09:38:40;51.10;;;32.90;;
13805;SDS011;6974;53.606;9.872;2022-11-14T09:41:16;49.83;;;33.77;;
13805;SDS011;6974;53.606;9.872;2022-11-14T09:43:57;48.80;;;31.30;;
13805;SDS011;6974;53.606;9.872;2022-11-14T09:46:37;46.70;;;31.33;;
13805;SDS011;6974;53.606;9.872;2022-11-14T09:49:14;46.73;;;31.50;;
13805;SDS011;6974;53.606;9.872;2022-11-14T09:51:49;48.83;;;31.93;;
13805;SDS011;6974;53.606;9.872;2022-11-14T09:54:23;44.53;;;30.80;;
13805;SDS011;6974;53.606;9.872;2022-11-14T09:56:52;50.97;;;31.53;;
13805;SDS011;6974;53.606;9.872;2022-11-14T09:59:19;48.57;;;32.17;;
13805;SDS011;6974;53.606;9.872;2022-11-14T10:01:48;51.90;;;33.17;;
13805;SDS011;6974;53.606;9.872;2022-11-14T10:04:25;49.80;;;33.30;;
13805;SDS011;6974;53.606;9.872;2022-11-14T10:07:05;49.67;;;32.67;;
13805;SDS011;6974;53.606;9.872;2022-11-14T10:09:46;45.27;;;32.83;;
13805;SDS011;6974;53.606;9.872;2022-11-14T10:12:20;47.63;;;31.53;;
13805;SDS011;6974;53.606;9.872;2022-11-14T10:18:02;52.63;;;32.43;;
13805;SDS011;6974;53.606;9.872;2022-11-14T10:20:43;46.10;;;30.13;;
13805;SDS011;6974;53.606;9.872;2022-11-14T10:23:17;52.83;;;32.50;;
13805;SDS011;6974;53.606;9.872;2022-11-14T10:25:54;49.03;;;31.37;;
13805;SDS011;6974;53.606;9.872;2022-11-14T10:28:32;45.57;;;31.17;;
13805;SDS011;6974;53.606;9.872;2022-11-14T10:31:09;44.87;;;31.13;;
13805;SDS011;6974;53.606;9.872;2022-11-14T10:33:46;46.60;;;31.90;;
13805;SDS011;6974;53.606;9.872;2022-11-14T10:36:26;45.10;;;32.33;;
13805;SDS011;6974;53.606;9.872;2022-11-14T10:39:18;47.90;;;32.43;;
13805;SDS011;6974;53.606;9.872;2022-11-14T10:41:50;46.40;;;32.17;;
13805;SDS011;6974;53.606;9.872;2022-11-14T10:44:21;47.27;;;32.53;;
13805;SDS011;6974;53.606;9.872;2022-11-14T10:46:53;46.57;;;32.80;;
13805;SDS011;6974;53.606;9.872;2022-11-14T10:49:24;45.93;;;30.97;;
13805;SDS011;6974;53.606;9.872;2022-11-14T10:51:53;43.10;;;30.43;;
13805;SDS011;6974;53.606;9.872;2022-11-14T10:54:24;47.00;;;32.10;;
13805;SDS011;6974;53.606;9.872;2022-11-14T10:56:56;44.53;;;30.87;;
13805;SDS011;6974;53.606;9.872;2022-11-14T10:59:22;44.37;;;31.37;;
13805;SDS011;6974;53.606;9.872;2022-11-14T11:01:52;43.40;;;31.07;;
13805;SDS011;6974;53.606;9.872;2022-11-14T11:04:23;46.97;;;31.87;;
13805;SDS011;6974;53.606;9.872;2022-11-14T11:06:54;43.40;;;31.77;;
13805;SDS011;6974;53.606;9.872;2022-11-14T11:09:23;50.83;;;31.40;;
13805;SDS011;6974;53.606;9.872;2022-11-14T11:12:13;44.50;;;30.87;;
13805;SDS011;6974;53.606;9.872;2022-11-14T11:14:41;42.83;;;30.70;;
13805;SDS011;6974;53.606;9.872;2022-11-14T11:17:19;40.13;;;29.53;;
13805;SDS011;6974;53.606;9.872;2022-11-14T11:19:48;43.77;;;30.87;;
13805;SDS011;6974;53.606;9.872;2022-11-14T11:22:30;44.93;;;30.70;;
13805;SDS011;6974;53.606;9.872;2022-11-14T11:25:01;39.37;;;28.70;;
13805;SDS011;6974;53.606;9.872;2022-11-14T11:27:28;39.70;;;28.23;;
13805;SDS011;6974;53.606;9.872;2022-11-14T11:30:03;40.93;;;29.53;;
13805;SDS011;6974;53.606;9.872;2022-11-14T11:32:33;40.17;;;29.33;;
13805;SDS011;6974;53.606;9.872;2022-11-14T11:35:01;38.70;;;28.83;;
13805;SDS011;6974;53.606;9.872;2022-11-14T11:37:37;37.27;;;27.67;;
13805;SDS011;6974;53.606;9.872;2022-11-14T11:40:09;39.73;;;29.43;;
13805;SDS011;6974;53.606;9.872;2022-11-14T11:42:42;36.57;;;26.70;;
13805;SDS011;6974;53.606;9.872;2022-11-14T11:45:16;40.40;;;29.23;;
13805;SDS011;6974;53.606;9.872;2022-11-14T11:47:45;38.60;;;27.80;;
13805;SDS011;6974;53.606;9.872;2022-11-14T11:50:17;37.87;;;28.63;;
13805;SDS011;6974;53.606;9.872;2022-11-14T11:52:48;39.40;;;29.07;;
13805;SDS011;6974;53.606;9.872;2022-11-14T11:55:23;38.57;;;28.10;;
13805;SDS011;6974;53.606;9.872;2022-11-14T11:57:55;38.60;;;28.20;;
13805;SDS011;6974;53.606;9.872;2022-11-14T12:00:27;39.30;;;29.00;;
13805;SDS011;6974;53.606;9.872;2022-11-14T12:02:54;40.40;;;29.17;;
13805;SDS011;6974;53.606;9.872;2022-11-14T12:05:24;36.70;;;27.67;;
13805;SDS011;6974;53.606;9.872;2022-11-14T12:07:58;40.40;;;27.43;;
13805;SDS011;6974;53.606;9.872;2022-11-14T12:10:29;35.20;;;27.17;;
13805;SDS011;6974;53.606;9.872;2022-11-14T12:13:03;39.07;;;28.87;;
13805;SDS011;6974;53.606;9.872;2022-11-14T12:15:54;36.83;;;27.43;;
13805;SDS011;6974;53.606;9.872;2022-11-14T12:18:34;40.40;;;28.27;;
13805;SDS011;6974;53.606;9.872;2022-11-14T12:21:24;38.47;;;27.23;;
13805;SDS011;6974;53.606;9.872;2022-11-14T12:24:09;39.07;;;27.60;;
13805;SDS011;6974;53.606;9.872;2022-11-14T12:27:01;40.40;;;27.03;;
13805;SDS011;6974;53.606;9.872;2022-11-14T12:29:47;37.10;;;27.57;;
13805;SDS011;6974;53.606;9.872;2022-11-14T12:32:28;36.47;;;27.77;;
13805;SDS011;6974;53.606;9.872;2022-11-14T12:34:59;35.20;;;28.00;;
13805;SDS011;6974;53.606;9.872;2022-11-14T12:37:30;39.03;;;27.97;;
13805;SDS011;6974;53.606;9.872;2022-11-14T12:40:02;38.47;;;29.23;;
13805;SDS011;6974;53.606;9.872;2022-11-14T12:42:30;37.70;;;27.83;;
13805;SDS011;6974;53.606;9.872;2022-11-14T12:44:58;37.00;;;28.60;;
13805;SDS011;6974;53.606;9.872;2022-11-14T12:47:25;38.90;;;27.70;;
13805;SDS011;6974;53.606;9.872;2022-11-14T12:49:56;36.30;;;27.17;;
13805;SDS011;6974;53.606;9.872;2022-11-14T12:52:45;35.20;;;26.40;;
13805;SDS011;6974;53.606;9.872;2022-11-14T12:58:22;34.07;;;25.90;;
13805;SDS011;6974;53.606;9.872;2022-11-14T13:01:09;36.07;;;26.97;;
13805;SDS011;6974;53.606;9.872;2022-11-14T13:04:02;37.80;;;27.30;;
13805;SDS011;6974;53.606;9.872;2022-11-14T13:06:44;38.10;;;28.03;;
13805;SDS011;6974;53.606;9.872;2022-11-14T13:12:33;35.47;;;27.40;;
13805;SDS011;6974;53.606;9.872;2022-11-14T13:15:21;38.67;;;28.53;;
13805;SDS011;6974;53.606;9.872;2022-11-14T13:18:13;38.73;;;27.70;;
13805;SDS011;6974;53.606;9.872;2022-11-14T13:21:02;38.03;;;28.70;;
13805;SDS011;6974;53.606;9.872;2022-11-14T13:23:54;37.87;;;28.37;;
13805;SDS011;6974;53.606;9.872;2022-11-14T13:26:35;39.57;;;28.20;;
13805;SDS011;6974;53.606;9.872;2022-11-14T13:29:04;39.30;;;28.90;;
13805;SDS011;6974;53.606;9.872;2022-11-14T13:34:37;37.73;;;27.73;;
13805;SDS011;6974;53.606;9.872;2022-11-14T13:37:11;42.10;;;28.50;;
13805;SDS011;6974;53.606;9.872;2022-11-14T13:39:50;35.60;;;28.10;;
13805;SDS011;6974;53.606;9.872;2022-11-14T13:42:28;39.13;;;28.20;;
13805;SDS011;6974;53.606;9.872;2022-11-14T13:51:15;36.37;;;28.60;;
13805;SDS011;6974;53.606;9.872;2022-11-14T13:53:43;41.33;;;28.57;;
13805;SDS011;6974;53.606;9.872;2022-11-14T13:56:18;38.23;;;27.70;;
13805;SDS011;6974;53.606;9.872;2022-11-14T14:02:03;37.03;;;27.73;;
13805;SDS011;6974;53.606;9.872;2022-11-14T14:04:44;39.20;;;28.50;;
13805;SDS011;6974;53.606;9.872;2022-11-14T14:07:19;42.00;;;28.47;;
13805;SDS011;6974;53.606;9.872;2022-11-14T14:09:57;35.43;;;27.33;;
13805;SDS011;6974;53.606;9.872;2022-11-14T14:12:36;37.23;;;27.90;;
13805;SDS011;6974;53.606;9.872;2022-11-14T14:15:20;38.43;;;27.57;;
13805;SDS011;6974;53.606;9.872;2022-11-14T14:17:59;36.37;;;27.60;;
13805;SDS011;6974;53.606;9.872;2022-11-14T14:20:38;37.87;;;27.37;;
13805;SDS011;6974;53.606;9.872;2022-11-14T14:23:16;38.23;;;27.90;;
13805;SDS011;6974;53.606;9.872;2022-11-14T14:25:55;38.67;;;27.63;;
13805;SDS011;6974;53.606;9.872;2022-11-14T14:28:32;40.67;;;28.83;;
13805;SDS011;6974;53.606;9.872;2022-11-14T14:31:09;36.53;;;28.57;;
13805;SDS011;6974;53.606;9.872;2022-11-14T14:33:39;35.87;;;26.90;;
13805;SDS011;6974;53.606;9.872;2022-11-14T14:36:15;38.73;;;27.13;;
13805;SDS011;6974;53.606;9.872;2022-11-14T14:38:43;36.77;;;27.40;;
13805;SDS011;6974;53.606;9.872;2022-11-14T14:41:11;40.17;;;28.23;;
13805;SDS011;6974;53.606;9.872;2022-11-14T14:43:41;38.10;;;27.70;;
13805;SDS011;6974;53.606;9.872;2022-11-14T14:46:14;35.40;;;26.83;;
13805;SDS011;6974;53.606;9.872;2022-11-14T14:48:42;37.53;;;27.57;;
13805;SDS011;6974;53.606;9.872;2022-11-14T14:51:11;36.57;;;26.33;;
13805;SDS011;6974;53.606;9.872;2022-11-14T14:53:39;39.47;;;27.50;;
13805;SDS011;6974;53.606;9.872;2022-11-14T14:56:18;34.90;;;27.23;;
13805;SDS011;6974;53.606;9.872;2022-11-14T14:58:48;39.57;;;27.90;;
13805;SDS011;6974;53.606;9.872;2022-11-14T15:01:16;40.97;;;28.17;;
13805;SDS011;6974;53.606;9.872;2022-11-14T15:03:47;34.70;;;26.80;;
13805;SDS011;6974;53.606;9.872;2022-11-14T15:06:20;52.10;;;30.40;;
13805;SDS011;6974;53.606;9.872;2022-11-14T15:08:54;36.40;;;26.27;;
13805;SDS011;6974;53.606;9.872;2022-11-14T15:11:22;39.93;;;27.23;;
13805;SDS011;6974;53.606;9.872;2022-11-14T15:13:49;37.80;;;27.33;;